createdAt,value
2023-01-11T00:01:45.261Z,99088.63
2023-01-11T00:04:17.320Z,99087.70
2023-01-11T00:06:49.383Z,99085.36
2023-01-11T00:09:21.194Z,99079.54
2023-01-11T00:11:52.921Z,99076.66
2023-01-11T00:14:24.830Z,99076.77
2023-01-11T00:16:59.370Z,99079.17
2023-01-11T00:19:31.083Z,99073.19
2023-01-11T00:22:02.827Z,99074.38
2023-01-11T00:24:34.504Z,99065.05
2023-01-11T00:27:06.392Z,99068.22
2023-01-11T00:29:38.572Z,99068.36
2023-01-11T00:32:10.933Z,99067.30
2023-01-11T00:34:42.594Z,99067.19
2023-01-11T00:37:14.532Z,99068.17
2023-01-11T00:39:46.417Z,99069.87
2023-01-11T00:42:36.004Z,99070.88
2023-01-11T00:45:27.524Z,99072.44
2023-01-11T00:48:01.198Z,99072.63
2023-01-11T00:50:35.284Z,99079.65
2023-01-11T00:53:09.321Z,99078.05
2023-01-11T00:55:41.220Z,99078.02
2023-01-11T00:58:13.114Z,99079.75
2023-01-11T01:00:44.847Z,99087.13
2023-01-11T01:03:16.640Z,99091.23
2023-01-11T01:05:48.359Z,99093.99
2023-01-11T01:08:20.449Z,99092.10
2023-01-11T01:10:55.225Z,99090.27
2023-01-11T01:13:44.315Z,99090.13
2023-01-11T01:16:16.060Z,99083.98
2023-01-11T01:18:48.057Z,99080.12
2023-01-11T01:21:20.367Z,99079.65
2023-01-11T01:23:53.988Z,99076.64
2023-01-11T01:26:24.522Z,99081.02
2023-01-11T01:28:56.205Z,99082.89
2023-01-11T01:31:28.509Z,99081.95
2023-01-11T01:34:01.240Z,99084.20
2023-01-11T01:36:32.985Z,99088.06
2023-01-11T01:39:05.874Z,99086.91
2023-01-11T01:41:38.138Z,99090.11
2023-01-11T01:44:40.401Z,99087.96
2023-01-11T01:47:13.689Z,99085.66
2023-01-11T01:49:47.301Z,99079.85
2023-01-11T01:52:19.795Z,99077.95
2023-01-11T01:54:52.135Z,99076.02
2023-01-11T01:57:28.711Z,99077.60
2023-01-11T02:00:07.058Z,99076.52
2023-01-11T02:02:41.647Z,99074.11
2023-01-11T02:05:17.278Z,99066.28
2023-01-11T02:07:51.649Z,99068.15
2023-01-11T02:10:27.609Z,99069.75
2023-01-11T02:13:03.091Z,99069.34
2023-01-11T02:15:35.522Z,99064.11
2023-01-11T02:18:13.424Z,99055.39
2023-01-11T02:21:07.918Z,99054.48
2023-01-11T02:24:05.685Z,99058.21
2023-01-11T02:27:17.504Z,99057.35
2023-01-11T02:30:03.551Z,99052.84
2023-01-11T02:32:54.012Z,99050.84
2023-01-11T02:35:36.846Z,99049.06
2023-01-11T02:38:16.516Z,99049.55
2023-01-11T02:40:57.505Z,99049.65
2023-01-11T02:43:52.154Z,99051.14
2023-01-11T02:46:32.947Z,99047.82
2023-01-11T02:49:14.588Z,99047.39
2023-01-11T02:51:53.509Z,99047.13
2023-01-11T02:54:26.568Z,99045.88
2023-01-11T02:57:01.846Z,99045.74
2023-01-11T02:59:35.936Z,99048.23
2023-01-11T03:02:07.891Z,99053.67
2023-01-11T03:04:40.511Z,99058.11
2023-01-11T03:07:29.729Z,99060.55
2023-01-11T03:10:14.706Z,99058.19
2023-01-11T03:12:57.583Z,99059.71
2023-01-11T03:15:48.219Z,99061.73
2023-01-11T03:18:33.509Z,99064.27
2023-01-11T03:21:17.975Z,99061.95
2023-01-11T03:23:58.123Z,99067.19
2023-01-11T03:26:37.034Z,99061.08
2023-01-11T03:29:17.820Z,99060.91
2023-01-11T03:31:55.771Z,99063.45
2023-01-11T03:34:36.919Z,99064.77
2023-01-11T03:37:12.651Z,99059.77
2023-01-11T03:39:49.960Z,99052.98
2023-01-11T03:42:25.135Z,99049.45
2023-01-11T03:44:59.042Z,99048.27
2023-01-11T03:47:33.178Z,99051.23
2023-01-11T03:50:11.116Z,99050.83
2023-01-11T03:52:46.142Z,99047.67
2023-01-11T03:55:19.794Z,99047.41
2023-01-11T03:57:51.538Z,99043.46
2023-01-11T04:00:24.665Z,99045.88
2023-01-11T04:02:56.434Z,99044.27
2023-01-11T04:05:28.643Z,99049.89
2023-01-11T04:08:00.537Z,99048.24
2023-01-11T04:10:32.280Z,99042.51
2023-01-11T04:13:04.297Z,99040.26
2023-01-11T04:15:36.183Z,99042.45
2023-01-11T04:18:08.263Z,99043.38
2023-01-11T04:20:41.687Z,99041.70
2023-01-11T04:23:15.080Z,99038.09
2023-01-11T04:25:47.516Z,99038.02
2023-01-11T04:28:19.264Z,99040.17
2023-01-11T04:30:51.064Z,99040.53
2023-01-11T04:33:22.863Z,99040.31
2023-01-11T04:35:54.712Z,99040.70
2023-01-11T04:38:27.234Z,99038.03
2023-01-11T04:41:12.834Z,99033.67
2023-01-11T04:43:44.594Z,99032.20
2023-01-11T04:46:16.448Z,99030.73
2023-01-11T04:48:48.224Z,99026.02
2023-01-11T04:51:20.469Z,99020.96
2023-01-11T04:53:52.300Z,99023.38
2023-01-11T04:56:24.064Z,99021.26
2023-01-11T04:58:57.926Z,99019.35
2023-01-11T05:01:29.647Z,99014.17
2023-01-11T05:04:01.553Z,99008.86
2023-01-11T05:06:33.350Z,99007.91
2023-01-11T05:09:05.087Z,99005.35
2023-01-11T05:11:36.797Z,99007.48
2023-01-11T05:14:08.988Z,99006.85
2023-01-11T05:16:40.786Z,99000.17
2023-01-11T05:19:13.727Z,98999.86
2023-01-11T05:21:45.624Z,98995.86
2023-01-11T05:24:18.322Z,98996.80
2023-01-11T05:26:50.298Z,98995.93
2023-01-11T05:29:21.984Z,98991.46
2023-01-11T05:31:53.707Z,98995.02
2023-01-11T05:34:25.852Z,98995.25
2023-01-11T05:36:57.709Z,98990.64
2023-01-11T05:39:29.721Z,98988.33
2023-01-11T05:42:01.468Z,98987.88
2023-01-11T05:44:51.190Z,98986.55
2023-01-11T05:47:22.983Z,98987.00
2023-01-11T05:49:54.782Z,98986.14
2023-01-11T05:52:26.582Z,98988.83
2023-01-11T05:54:59.344Z,98988.85
2023-01-11T05:57:31.219Z,98981.05
2023-01-11T06:00:03.103Z,98978.17
2023-01-11T06:02:35.306Z,98977.98
2023-01-11T06:05:09.210Z,98975.21
2023-01-11T06:07:40.919Z,98976.86
2023-01-11T06:10:13.792Z,98976.58
2023-01-11T06:12:46.573Z,98978.05
2023-01-11T06:15:20.463Z,98979.17
2023-01-11T06:17:52.175Z,98980.29
2023-01-11T06:20:23.848Z,98983.05
2023-01-11T06:22:55.583Z,98977.88
2023-01-11T06:25:27.306Z,98976.08
2023-01-11T06:28:00.136Z,98971.34
2023-01-11T06:30:32.089Z,98970.45
2023-01-11T06:33:06.728Z,98968.27
2023-01-11T06:35:40.824Z,98968.86
2023-01-11T06:38:15.645Z,98967.19
2023-01-11T06:40:55.270Z,98970.80
2023-01-11T06:43:28.485Z,98974.55
2023-01-11T06:46:00.751Z,98979.56
2023-01-11T06:48:32.661Z,98981.67
2023-01-11T06:51:04.483Z,98985.77
2023-01-11T06:53:36.245Z,98983.52
2023-01-11T06:56:11.901Z,98983.43
2023-01-11T06:58:46.749Z,98983.58
2023-01-11T07:01:19.603Z,98985.13
2023-01-11T07:03:51.426Z,98985.95
2023-01-11T07:06:23.197Z,98988.90
2023-01-11T07:08:54.974Z,98986.61
2023-01-11T07:11:26.794Z,98985.95
2023-01-11T07:13:58.766Z,98981.61
2023-01-11T07:16:30.474Z,98980.30
2023-01-11T07:19:02.258Z,98978.92
2023-01-11T07:21:34.127Z,98978.10
2023-01-11T07:24:06.766Z,98975.05
2023-01-11T07:26:41.509Z,98972.92
2023-01-11T07:29:13.435Z,98966.91
2023-01-11T07:31:47.004Z,98962.96
2023-01-11T07:34:17.214Z,98961.20
2023-01-11T07:36:48.907Z,98953.73
2023-01-11T07:39:23.294Z,98958.20
2023-01-11T07:42:11.031Z,98953.95
2023-01-11T07:44:42.771Z,98951.80
2023-01-11T07:47:14.727Z,98949.84
2023-01-11T07:49:46.994Z,98950.61
2023-01-11T07:52:19.890Z,98950.20
2023-01-11T07:54:51.951Z,98949.38
2023-01-11T07:57:24.687Z,98950.07
2023-01-11T07:59:56.567Z,98952.17
2023-01-11T08:02:28.459Z,98946.33
2023-01-11T08:05:02.296Z,98948.27
2023-01-11T08:07:35.255Z,98942.96
2023-01-11T08:10:08.901Z,98942.10
2023-01-11T08:13:01.700Z,98944.30
2023-01-11T08:15:35.956Z,98940.07
2023-01-11T08:18:07.850Z,98944.12
2023-01-11T08:20:40.187Z,98939.78
2023-01-11T08:23:12.625Z,98935.61
2023-01-11T08:25:44.350Z,98931.96
2023-01-11T08:28:16.294Z,98933.69
2023-01-11T08:30:48.231Z,98929.69
2023-01-11T08:33:19.961Z,98931.23
2023-01-11T08:35:51.744Z,98936.00
2023-01-11T08:38:23.540Z,98937.68
2023-01-11T08:40:55.289Z,98940.21
2023-01-11T08:43:27.082Z,98938.46
2023-01-11T08:45:58.987Z,98943.13
2023-01-11T08:48:30.935Z,98942.64
2023-01-11T08:51:02.779Z,98943.73
2023-01-11T08:53:34.544Z,98947.92
2023-01-11T08:56:07.165Z,98946.83
2023-01-11T08:58:39.138Z,98953.55
2023-01-11T09:01:12.124Z,98957.06
2023-01-11T09:03:43.942Z,98961.64
2023-01-11T09:06:16.043Z,98959.23
2023-01-11T09:08:47.814Z,98957.67
2023-01-11T09:11:38.444Z,98951.86
2023-01-11T09:14:10.094Z,98950.63
2023-01-11T09:16:41.805Z,98942.67
2023-01-11T09:19:13.554Z,98938.76
2023-01-11T09:21:46.258Z,98938.02
2023-01-11T09:24:18.335Z,98938.88
2023-01-11T09:26:50.316Z,98942.39
2023-01-11T09:29:22.496Z,98944.62
2023-01-11T09:31:54.216Z,98944.79
2023-01-11T09:34:27.376Z,98943.86
2023-01-11T09:37:02.832Z,98941.35
2023-01-11T09:39:35.406Z,98936.87
2023-01-11T09:42:32.599Z,98936.89
2023-01-11T09:45:13.943Z,98933.34
2023-01-11T09:47:51.049Z,98932.55
2023-01-11T09:50:25.936Z,98921.98
2023-01-11T09:53:03.289Z,98918.99
2023-01-11T09:55:38.430Z,98919.81
2023-01-11T09:58:36.463Z,98913.98
2023-01-11T10:01:16.288Z,98917.13
2023-01-11T10:04:06.171Z,98916.80
2023-01-11T10:06:46.158Z,98912.20
2023-01-11T10:18:25.906Z,98908.46
2023-01-11T10:19:18.562Z,98900.83
2023-01-11T10:21:49.778Z,98889.37
2023-01-11T10:24:29.476Z,98881.86
2023-01-11T10:27:07.550Z,98881.48
2023-01-11T10:29:57.647Z,98875.67
2023-01-11T10:32:54.423Z,98877.16
2023-01-11T10:35:45.831Z,98868.88
2023-01-11T10:38:43.659Z,98863.19
2023-01-11T10:41:26.435Z,98859.09
2023-01-11T10:44:11.751Z,98854.81
2023-01-11T10:46:46.976Z,98849.83
2023-01-11T10:49:44.979Z,98848.88
2023-01-11T10:52:35.371Z,98846.52
2023-01-11T10:55:17.866Z,98845.85
2023-01-11T10:58:07.250Z,98844.87
2023-01-11T11:00:51.446Z,98841.89
2023-01-11T11:03:45.591Z,98837.15
2023-01-11T11:06:30.190Z,98838.52
2023-01-11T11:09:10.437Z,98838.41
2023-01-11T11:11:53.248Z,98835.60
2023-01-11T11:14:32.184Z,98834.38
2023-01-11T11:17:16.243Z,98824.85
2023-01-11T11:19:48.030Z,98822.34
2023-01-11T11:22:21.022Z,98812.58
2023-01-11T11:25:00.114Z,98809.13
2023-01-11T11:27:40.838Z,98803.77
2023-01-11T11:30:16.264Z,98801.21
2023-01-11T11:32:58.649Z,98797.71
2023-01-11T11:35:40.882Z,98790.41
2023-01-11T11:38:23.723Z,98791.01
2023-01-11T11:41:07.622Z,98789.89
2023-01-11T11:43:38.563Z,98786.77
2023-01-11T11:46:25.172Z,98784.79
2023-01-11T11:49:15.075Z,98782.41
2023-01-11T11:51:49.185Z,98778.11
2023-01-11T11:54:27.291Z,98779.58
2023-01-11T11:57:13.248Z,98778.38
2023-01-11T11:59:48.021Z,98777.04
2023-01-11T12:02:29.051Z,98774.84
2023-01-11T12:05:06.712Z,98768.32
2023-01-11T12:07:54.164Z,98765.67
2023-01-11T12:10:32.640Z,98764.45
2023-01-11T12:13:25.932Z,98758.70
2023-01-11T12:16:01.099Z,98755.13
2023-01-11T12:18:41.320Z,98751.71
2023-01-11T12:21:21.165Z,98744.98
2023-01-11T12:24:19.204Z,98744.27
2023-01-11T12:27:01.982Z,98745.20
2023-01-11T12:30:00.864Z,98748.47
2023-01-11T12:33:20.634Z,98742.36
2023-01-11T12:35:59.710Z,98745.07
2023-01-11T12:38:42.808Z,98737.06
2023-01-11T12:41:47.766Z,98733.59
2023-01-11T12:44:32.173Z,98726.67
2023-01-11T12:47:45.380Z,98725.11
2023-01-11T12:50:24.821Z,98710.81
2023-01-11T12:53:12.906Z,98698.89
2023-01-11T12:55:57.060Z,98695.86
2023-01-11T12:58:37.142Z,98690.58
2023-01-11T13:01:20.382Z,98690.73
2023-01-11T13:04:17.741Z,98689.89
2023-01-11T13:06:59.860Z,98682.25
2023-01-11T13:09:46.799Z,98671.48
2023-01-11T13:12:23.390Z,98670.84
2023-01-11T13:15:05.114Z,98672.23
2023-01-11T13:17:43.321Z,98673.17
2023-01-11T13:20:30.935Z,98669.14
2023-01-11T13:23:09.081Z,98665.60
2023-01-11T13:25:44.899Z,98665.09
2023-01-11T13:28:27.050Z,98667.33
2023-01-11T13:31:00.589Z,98665.31
2023-01-11T13:33:32.693Z,98664.52
2023-01-11T13:36:22.562Z,98661.95
2023-01-11T13:39:01.546Z,98659.30
2023-01-11T13:41:39.650Z,98662.35
2023-01-11T13:44:19.497Z,98656.94
2023-01-11T13:47:03.726Z,98653.84
2023-01-11T13:49:50.083Z,98651.83
2023-01-11T13:52:32.342Z,98649.23
2023-01-11T13:55:20.831Z,98648.63
2023-01-11T13:58:03.131Z,98646.65
2023-01-11T14:00:42.167Z,98640.84
2023-01-11T14:03:28.322Z,98638.33
2023-01-11T14:06:13.153Z,98638.13
2023-01-11T14:09:01.568Z,98637.59
2023-01-11T14:11:43.139Z,98640.08
2023-01-11T14:14:37.472Z,98637.07
2023-01-11T14:17:29.873Z,98640.88
2023-01-11T14:20:13.320Z,98644.91
2023-01-11T14:22:53.130Z,98650.24
2023-01-11T14:25:30.985Z,98649.61
2023-01-11T14:28:41.993Z,98648.52
2023-01-11T14:31:32.994Z,98648.36
2023-01-11T14:34:31.847Z,98650.63
2023-01-11T14:37:54.913Z,98645.33
2023-01-11T14:40:50.479Z,98639.27
2023-01-11T14:43:40.740Z,98644.39
2023-01-11T14:46:26.421Z,98641.83
2023-01-11T14:49:10.878Z,98641.92
2023-01-11T14:51:57.453Z,98641.42
2023-01-11T14:54:34.160Z,98635.51
2023-01-11T14:57:06.115Z,98634.98
2023-01-11T14:59:41.238Z,98634.55
2023-01-11T15:02:30.675Z,98629.73
2023-01-11T15:05:28.484Z,98623.15
2023-01-11T15:08:20.779Z,98622.55
2023-01-11T15:10:58.351Z,98621.39
2023-01-11T15:13:36.251Z,98620.47
2023-01-11T15:16:38.521Z,98617.46
2023-01-11T15:19:14.427Z,98619.30
2023-01-11T15:21:53.254Z,98616.44
2023-01-11T15:24:28.492Z,98615.50
2023-01-11T15:27:02.325Z,98608.81
2023-01-11T15:29:37.176Z,98603.70
2023-01-11T15:32:18.019Z,98601.98
2023-01-11T15:34:51.070Z,98595.46
2023-01-11T15:37:46.052Z,98592.05
2023-01-11T15:40:26.043Z,98596.74
2023-01-11T15:43:29.069Z,98597.66
2023-01-11T15:46:48.160Z,98591.65
2023-01-11T15:49:46.747Z,98587.03
2023-01-11T15:52:40.714Z,98580.98
2023-01-11T15:55:39.194Z,98578.78
2023-01-11T15:58:52.710Z,98581.46
2023-01-11T16:01:26.483Z,98577.92
2023-01-11T16:04:05.076Z,98573.50
2023-01-11T16:06:43.664Z,98573.11
2023-01-11T16:09:41.000Z,98572.86
2023-01-11T16:12:47.267Z,98570.77
2023-01-11T16:15:39.336Z,98568.30
2023-01-11T16:18:17.982Z,98567.48
2023-01-11T16:21:01.413Z,98568.33
2023-01-11T16:23:35.148Z,98564.52
2023-01-11T16:26:08.936Z,98567.61
2023-01-11T16:28:48.833Z,98565.52
2023-01-11T16:31:20.754Z,98561.88
2023-01-11T16:34:18.142Z,98562.48
2023-01-11T16:36:49.904Z,98563.21
2023-01-11T16:39:25.787Z,98561.45
2023-01-11T16:42:05.688Z,98567.17
2023-01-11T16:44:46.072Z,98563.14
2023-01-11T16:47:19.713Z,98565.82
2023-01-11T16:50:11.567Z,98571.30
2023-01-11T16:52:50.741Z,98572.27
2023-01-11T16:55:30.865Z,98567.45
2023-01-11T16:58:05.841Z,98565.73
2023-01-11T17:00:40.062Z,98565.35
2023-01-11T17:03:25.019Z,98564.80
2023-01-11T17:06:00.293Z,98560.27
2023-01-11T17:08:35.329Z,98556.45
2023-01-11T17:11:21.631Z,98555.61
2023-01-11T17:14:28.897Z,98557.37
2023-01-11T17:17:03.557Z,98561.56
2023-01-11T17:19:38.163Z,98559.17
2023-01-11T17:22:17.695Z,98557.07
2023-01-11T17:24:53.342Z,98560.83
2023-01-11T17:27:28.195Z,98563.55
2023-01-11T17:30:01.799Z,98567.42
2023-01-11T17:32:39.308Z,98565.83
2023-01-11T17:35:18.467Z,98570.29
2023-01-11T17:37:52.388Z,98567.09
2023-01-11T17:40:27.685Z,98576.55
2023-01-11T17:43:22.070Z,98582.85
2023-01-11T17:45:57.266Z,98580.44
2023-01-11T17:48:30.610Z,98576.59
2023-01-11T17:51:04.189Z,98573.73
2023-01-11T17:53:37.801Z,98566.94
2023-01-11T17:56:30.163Z,98564.23
2023-01-11T17:59:21.341Z,98559.07
2023-01-11T18:01:54.839Z,98559.48
2023-01-11T18:04:28.387Z,98557.97
2023-01-11T18:07:11.007Z,98555.58
2023-01-11T18:09:48.176Z,98552.13
2023-01-11T18:12:24.209Z,98552.77
2023-01-11T18:14:59.517Z,98550.45
2023-01-11T18:17:37.127Z,98550.91
2023-01-11T18:20:36.509Z,98548.39
2023-01-11T18:23:21.181Z,98545.05
2023-01-11T18:26:13.022Z,98541.77
2023-01-11T18:28:44.903Z,98545.55
2023-01-11T18:31:16.942Z,98548.95
2023-01-11T18:33:49.356Z,98554.11
2023-01-11T18:36:26.482Z,98557.76
2023-01-11T18:39:02.091Z,98554.73
2023-01-11T18:41:53.115Z,98549.93
2023-01-11T18:50:01.887Z,98559.38
2023-01-11T18:52:33.831Z,98557.73
2023-01-11T18:55:07.079Z,98552.83
2023-01-11T18:57:39.091Z,98554.24
2023-01-11T19:00:18.748Z,98554.66
2023-01-11T19:05:23.789Z,98563.02
2023-01-11T19:07:55.658Z,98566.15
2023-01-11T19:10:28.785Z,98569.12
2023-01-11T19:13:01.678Z,98558.02
2023-01-11T19:15:35.569Z,98559.41
2023-01-11T19:18:09.956Z,98563.73
2023-01-11T19:20:42.681Z,98561.65
2023-01-11T19:23:14.802Z,98561.35
2023-01-11T19:28:33.769Z,98563.06
2023-01-11T19:31:11.262Z,98565.66
2023-01-11T19:33:43.334Z,98566.91
2023-01-11T19:36:15.221Z,98567.73
2023-01-11T19:38:47.167Z,98562.89
2023-01-11T19:41:19.135Z,98566.06
2023-01-11T19:43:51.013Z,98562.86
2023-01-11T19:46:31.737Z,98563.52
2023-01-11T19:49:06.310Z,98565.21
2023-01-11T19:51:38.390Z,98566.25
2023-01-11T19:54:13.101Z,98566.65
2023-01-11T19:56:45.244Z,98571.75
2023-01-11T19:59:17.737Z,98575.39
2023-01-11T20:01:50.074Z,98580.23
2023-01-11T20:04:22.197Z,98581.92
2023-01-11T20:06:55.001Z,98589.73
2023-01-11T20:09:26.876Z,98584.56
2023-01-11T20:11:58.869Z,98576.11
2023-01-11T20:14:30.542Z,98570.05
2023-01-11T20:17:02.440Z,98567.27
2023-01-11T20:19:34.251Z,98567.84
2023-01-11T20:22:06.580Z,98566.27
2023-01-11T20:24:38.611Z,98572.06
2023-01-11T20:27:10.427Z,98573.92
2023-01-11T20:29:43.693Z,98578.84
2023-01-11T20:32:39.309Z,98587.93
2023-01-11T20:35:09.014Z,98596.59
2023-01-11T20:37:41.071Z,98594.76
2023-01-11T20:40:14.617Z,98598.40
2023-01-11T20:42:44.834Z,98601.20
2023-01-11T20:45:16.823Z,98599.38
2023-01-11T20:47:48.733Z,98600.76
2023-01-11T20:50:20.901Z,98604.41
2023-01-11T20:52:53.069Z,98607.84
2023-01-11T20:55:24.868Z,98608.20
2023-01-11T20:57:58.325Z,98607.53
2023-01-11T21:00:33.732Z,98612.05
2023-01-11T21:05:22.134Z,98601.79
2023-01-11T21:07:56.670Z,98602.65
2023-01-11T21:10:58.546Z,98591.77
2023-01-11T21:13:30.583Z,98591.91
2023-01-11T21:16:08.976Z,98598.97
2023-01-11T21:18:43.949Z,98608.33
2023-01-11T21:21:17.944Z,98611.38
2023-01-11T21:23:49.935Z,98613.96
2023-01-11T21:26:21.883Z,98615.95
2023-01-11T21:28:58.576Z,98615.71
2023-01-11T21:31:32.650Z,98615.64
2023-01-11T21:34:05.435Z,98613.99
2023-01-11T21:36:37.295Z,98612.98
2023-01-11T21:39:09.654Z,98613.05
2023-01-11T21:41:58.880Z,98616.85
2023-01-11T21:44:33.566Z,98615.71
2023-01-11T21:47:07.118Z,98617.31
2023-01-11T21:49:38.874Z,98621.98
2023-01-11T21:52:11.874Z,98625.94
2023-01-11T21:54:43.591Z,98625.39
2023-01-11T21:57:15.325Z,98620.37
2023-01-11T21:59:47.319Z,98613.24
2023-01-11T22:02:19.099Z,98608.29
2023-01-11T22:04:53.297Z,98600.81
2023-01-11T22:07:26.222Z,98598.20
2023-01-11T22:10:04.429Z,98595.46
2023-01-11T22:12:37.234Z,98597.92
2023-01-11T22:15:11.581Z,98600.61
2023-01-11T22:17:43.384Z,98599.37
2023-01-11T22:20:17.599Z,98596.79
2023-01-11T22:22:49.427Z,98603.94
2023-01-11T22:25:21.210Z,98603.89
2023-01-11T22:27:52.943Z,98607.52
2023-01-11T22:30:24.981Z,98613.08
2023-01-11T22:32:56.681Z,98618.23
2023-01-11T22:35:28.452Z,98617.59
2023-01-11T22:38:00.330Z,98625.39
2023-01-11T22:40:32.190Z,98626.28
2023-01-11T22:43:04.293Z,98636.13
2023-01-11T22:45:36.227Z,98636.46
2023-01-11T22:48:08.781Z,98641.82
2023-01-11T22:50:41.922Z,98642.98
2023-01-11T22:53:13.567Z,98644.95
2023-01-11T22:55:45.455Z,98649.89
2023-01-11T22:58:17.274Z,98649.52
2023-01-11T23:00:48.959Z,98655.36
2023-01-11T23:03:20.816Z,98655.90
2023-01-11T23:05:52.679Z,98659.52
2023-01-11T23:08:24.528Z,98654.84
2023-01-11T23:11:01.418Z,98660.06
2023-01-11T23:13:50.822Z,98659.45
2023-01-11T23:16:23.983Z,98661.39
2023-01-11T23:18:55.827Z,98661.09
2023-01-11T23:21:27.766Z,98662.30
2023-01-11T23:24:01.155Z,98661.02
2023-01-11T23:26:32.955Z,98656.73
2023-01-11T23:29:05.412Z,98654.44
2023-01-11T23:31:37.260Z,98656.23
2023-01-11T23:34:09.156Z,98661.77
2023-01-11T23:36:42.884Z,98664.19
2023-01-11T23:39:14.502Z,98661.13
2023-01-11T23:42:03.900Z,98663.91
2023-01-11T23:44:36.294Z,98669.81
2023-01-11T23:47:31.135Z,98673.38
2023-01-11T23:50:03.591Z,98677.52
2023-01-11T23:52:35.375Z,98677.57
2023-01-11T23:55:09.728Z,98679.21
2023-01-11T23:58:02.459Z,98683.75
